sensor_id;sensor_type;location;lat;lon;timestamp;P1;durP1;ratioP1;P2;durP2;ratioP2
19434;SDS011;9853;50.848;4.108;2023-12-14T00:01:57;15.38;;;6.30;;
19434;SDS011;9853;50.848;4.108;2023-12-14T00:03:58;18.42;;;7.45;;
19434;SDS011;9853;50.848;4.108;2023-12-14T00:05:59;17.83;;;7.18;;
19434;SDS011;9853;50.848;4.108;2023-12-14T00:08:01;23.83;;;7.88;;
19434;SDS011;9853;50.848;4.108;2023-12-14T00:10:02;23.58;;;7.50;;
19434;SDS011;9853;50.848;4.108;2023-12-14T00:12:05;17.25;;;7.15;;
19434;SDS011;9853;50.848;4.108;2023-12-14T00:14:06;22.95;;;7.63;;
19434;SDS011;9853;50.848;4.108;2023-12-14T00:16:07;24.17;;;8.18;;
19434;SDS011;9853;50.848;4.108;2023-12-14T00:18:09;25.55;;;7.55;;
19434;SDS011;9853;50.848;4.108;2023-12-14T00:20:12;18.90;;;6.88;;
19434;SDS011;9853;50.848;4.108;2023-12-14T00:22:14;21.17;;;6.45;;
19434;SDS011;9853;50.848;4.108;2023-12-14T00:24:15;17.80;;;6.78;;
19434;SDS011;9853;50.848;4.108;2023-12-14T00:26:16;21.75;;;6.75;;
19434;SDS011;9853;50.848;4.108;2023-12-14T00:28:17;18.13;;;6.53;;
19434;SDS011;9853;50.848;4.108;2023-12-14T00:30:18;20.65;;;7.15;;
19434;SDS011;9853;50.848;4.108;2023-12-14T00:32:19;21.67;;;6.85;;
19434;SDS011;9853;50.848;4.108;2023-12-14T00:34:20;19.52;;;6.63;;
19434;SDS011;9853;50.848;4.108;2023-12-14T00:36:21;21.30;;;7.00;;
19434;SDS011;9853;50.848;4.108;2023-12-14T00:38:22;17.55;;;6.68;;
19434;SDS011;9853;50.848;4.108;2023-12-14T00:40:23;18.10;;;6.78;;
19434;SDS011;9853;50.848;4.108;2023-12-14T00:42:25;18.80;;;6.45;;
19434;SDS011;9853;50.848;4.108;2023-12-14T00:44:26;24.52;;;7.38;;
19434;SDS011;9853;50.848;4.108;2023-12-14T00:46:27;18.60;;;7.45;;
19434;SDS011;9853;50.848;4.108;2023-12-14T00:48:28;24.35;;;7.35;;
19434;SDS011;9853;50.848;4.108;2023-12-14T00:50:31;21.20;;;7.40;;
19434;SDS011;9853;50.848;4.108;2023-12-14T00:52:32;15.52;;;6.13;;
19434;SDS011;9853;50.848;4.108;2023-12-14T00:54:33;18.23;;;6.18;;
19434;SDS011;9853;50.848;4.108;2023-12-14T00:56:34;18.42;;;7.03;;
19434;SDS011;9853;50.848;4.108;2023-12-14T00:58:35;18.80;;;7.38;;
19434;SDS011;9853;50.848;4.108;2023-12-14T01:00:36;17.95;;;6.07;;
19434;SDS011;9853;50.848;4.108;2023-12-14T01:02:37;17.75;;;6.25;;
19434;SDS011;9853;50.848;4.108;2023-12-14T01:04:38;23.52;;;7.22;;
19434;SDS011;9853;50.848;4.108;2023-12-14T01:06:42;22.13;;;7.07;;
19434;SDS011;9853;50.848;4.108;2023-12-14T01:08:43;19.85;;;6.28;;
19434;SDS011;9853;50.848;4.108;2023-12-14T01:10:44;21.35;;;8.18;;
19434;SDS011;9853;50.848;4.108;2023-12-14T01:12:45;16.55;;;6.10;;
19434;SDS011;9853;50.848;4.108;2023-12-14T01:14:45;15.95;;;5.53;;
19434;SDS011;9853;50.848;4.108;2023-12-14T01:16:46;23.73;;;7.75;;
19434;SDS011;9853;50.848;4.108;2023-12-14T01:18:47;19.77;;;7.47;;
19434;SDS011;9853;50.848;4.108;2023-12-14T01:20:48;20.77;;;7.47;;
19434;SDS011;9853;50.848;4.108;2023-12-14T01:22:49;19.17;;;6.88;;
19434;SDS011;9853;50.848;4.108;2023-12-14T01:24:50;22.38;;;8.32;;
19434;SDS011;9853;50.848;4.108;2023-12-14T01:26:51;22.95;;;8.57;;
19434;SDS011;9853;50.848;4.108;2023-12-14T01:28:52;24.65;;;7.95;;
19434;SDS011;9853;50.848;4.108;2023-12-14T01:30:53;19.98;;;7.43;;
19434;SDS011;9853;50.848;4.108;2023-12-14T01:32:54;19.75;;;8.80;;
19434;SDS011;9853;50.848;4.108;2023-12-14T01:34:54;29.20;;;8.25;;
19434;SDS011;9853;50.848;4.108;2023-12-14T01:36:55;31.00;;;9.70;;
19434;SDS011;9853;50.848;4.108;2023-12-14T01:38:57;26.38;;;9.05;;
19434;SDS011;9853;50.848;4.108;2023-12-14T01:40:58;32.55;;;8.48;;
19434;SDS011;9853;50.848;4.108;2023-12-14T01:43:06;29.63;;;10.00;;
19434;SDS011;9853;50.848;4.108;2023-12-14T01:45:08;23.98;;;8.57;;
19434;SDS011;9853;50.848;4.108;2023-12-14T01:47:10;23.92;;;8.00;;
19434;SDS011;9853;50.848;4.108;2023-12-14T01:49:11;21.27;;;8.32;;
19434;SDS011;9853;50.848;4.108;2023-12-14T01:51:11;30.25;;;8.90;;
19434;SDS011;9853;50.848;4.108;2023-12-14T01:53:12;22.10;;;7.63;;
19434;SDS011;9853;50.848;4.108;2023-12-14T01:55:13;21.15;;;8.27;;
19434;SDS011;9853;50.848;4.108;2023-12-14T01:57:14;18.40;;;7.93;;
19434;SDS011;9853;50.848;4.108;2023-12-14T01:59:15;26.58;;;7.88;;
19434;SDS011;9853;50.848;4.108;2023-12-14T02:01:18;22.95;;;8.73;;
19434;SDS011;9853;50.848;4.108;2023-12-14T02:03:54;18.52;;;7.88;;
19434;SDS011;9853;50.848;4.108;2023-12-14T02:05:55;17.13;;;6.90;;
19434;SDS011;9853;50.848;4.108;2023-12-14T02:07:58;20.38;;;7.80;;
19434;SDS011;9853;50.848;4.108;2023-12-14T02:09:59;19.20;;;7.57;;
19434;SDS011;9853;50.848;4.108;2023-12-14T02:12:00;24.00;;;8.10;;
19434;SDS011;9853;50.848;4.108;2023-12-14T02:14:08;19.45;;;7.25;;
19434;SDS011;9853;50.848;4.108;2023-12-14T02:16:10;20.23;;;7.78;;
19434;SDS011;9853;50.848;4.108;2023-12-14T02:18:11;20.75;;;7.22;;
19434;SDS011;9853;50.848;4.108;2023-12-14T02:20:12;17.48;;;7.50;;
19434;SDS011;9853;50.848;4.108;2023-12-14T02:22:13;16.25;;;6.55;;
19434;SDS011;9853;50.848;4.108;2023-12-14T02:24:13;19.30;;;6.97;;
19434;SDS011;9853;50.848;4.108;2023-12-14T02:26:14;22.33;;;7.97;;
19434;SDS011;9853;50.848;4.108;2023-12-14T02:28:15;20.20;;;7.72;;
19434;SDS011;9853;50.848;4.108;2023-12-14T02:30:16;19.88;;;7.05;;
19434;SDS011;9853;50.848;4.108;2023-12-14T02:32:18;19.52;;;7.72;;
19434;SDS011;9853;50.848;4.108;2023-12-14T02:34:19;14.95;;;7.28;;
19434;SDS011;9853;50.848;4.108;2023-12-14T02:36:20;19.92;;;7.25;;
19434;SDS011;9853;50.848;4.108;2023-12-14T02:38:21;25.63;;;7.68;;
19434;SDS011;9853;50.848;4.108;2023-12-14T02:40:22;22.73;;;6.70;;
19434;SDS011;9853;50.848;4.108;2023-12-14T02:42:23;22.73;;;7.43;;
19434;SDS011;9853;50.848;4.108;2023-12-14T02:44:24;23.65;;;8.02;;
19434;SDS011;9853;50.848;4.108;2023-12-14T02:46:25;33.45;;;7.65;;
19434;SDS011;9853;50.848;4.108;2023-12-14T02:48:26;21.02;;;7.47;;
19434;SDS011;9853;50.848;4.108;2023-12-14T02:50:27;23.30;;;8.90;;
19434;SDS011;9853;50.848;4.108;2023-12-14T02:52:28;20.63;;;7.45;;
19434;SDS011;9853;50.848;4.108;2023-12-14T02:54:28;12.73;;;5.18;;
19434;SDS011;9853;50.848;4.108;2023-12-14T02:56:29;16.25;;;5.57;;
19434;SDS011;9853;50.848;4.108;2023-12-14T02:58:30;11.38;;;5.53;;
19434;SDS011;9853;50.848;4.108;2023-12-14T03:00:31;11.50;;;4.82;;
19434;SDS011;9853;50.848;4.108;2023-12-14T03:02:32;11.90;;;5.22;;
19434;SDS011;9853;50.848;4.108;2023-12-14T03:04:33;10.55;;;4.25;;
19434;SDS011;9853;50.848;4.108;2023-12-14T03:06:34;18.55;;;3.17;;
19434;SDS011;9853;50.848;4.108;2023-12-14T03:08:35;9.57;;;3.85;;
19434;SDS011;9853;50.848;4.108;2023-12-14T03:10:35;13.65;;;5.85;;
19434;SDS011;9853;50.848;4.108;2023-12-14T03:12:36;12.32;;;4.18;;
19434;SDS011;9853;50.848;4.108;2023-12-14T03:14:37;10.93;;;4.50;;
19434;SDS011;9853;50.848;4.108;2023-12-14T03:16:38;11.43;;;4.50;;
19434;SDS011;9853;50.848;4.108;2023-12-14T03:18:39;10.48;;;4.22;;
19434;SDS011;9853;50.848;4.108;2023-12-14T03:20:40;11.20;;;4.95;;
19434;SDS011;9853;50.848;4.108;2023-12-14T03:22:41;13.18;;;4.97;;
19434;SDS011;9853;50.848;4.108;2023-12-14T03:24:42;12.57;;;5.50;;
19434;SDS011;9853;50.848;4.108;2023-12-14T03:26:43;15.32;;;5.10;;
19434;SDS011;9853;50.848;4.108;2023-12-14T03:28:44;11.80;;;4.20;;
19434;SDS011;9853;50.848;4.108;2023-12-14T03:30:44;13.15;;;6.57;;
19434;SDS011;9853;50.848;4.108;2023-12-14T03:32:45;12.52;;;5.57;;
19434;SDS011;9853;50.848;4.108;2023-12-14T03:34:46;10.50;;;5.25;;
19434;SDS011;9853;50.848;4.108;2023-12-14T03:36:47;11.88;;;5.60;;
19434;SDS011;9853;50.848;4.108;2023-12-14T03:38:48;16.52;;;7.03;;
19434;SDS011;9853;50.848;4.108;2023-12-14T03:40:49;16.67;;;6.20;;
19434;SDS011;9853;50.848;4.108;2023-12-14T03:42:50;18.23;;;7.10;;
19434;SDS011;9853;50.848;4.108;2023-12-14T03:44:50;15.48;;;6.82;;
19434;SDS011;9853;50.848;4.108;2023-12-14T03:46:51;17.05;;;6.20;;
19434;SDS011;9853;50.848;4.108;2023-12-14T03:48:54;19.17;;;6.63;;
19434;SDS011;9853;50.848;4.108;2023-12-14T03:50:55;14.93;;;6.28;;
19434;SDS011;9853;50.848;4.108;2023-12-14T03:52:56;18.63;;;7.50;;
19434;SDS011;9853;50.848;4.108;2023-12-14T03:54:56;21.25;;;6.97;;
19434;SDS011;9853;50.848;4.108;2023-12-14T03:56:57;16.25;;;6.40;;
19434;SDS011;9853;50.848;4.108;2023-12-14T03:58:58;7.90;;;3.35;;
19434;SDS011;9853;50.848;4.108;2023-12-14T04:00:59;22.08;;;6.47;;
19434;SDS011;9853;50.848;4.108;2023-12-14T04:03:00;16.17;;;5.90;;
19434;SDS011;9853;50.848;4.108;2023-12-14T04:05:01;14.13;;;6.47;;
19434;SDS011;9853;50.848;4.108;2023-12-14T04:07:02;15.02;;;6.05;;
19434;SDS011;9853;50.848;4.108;2023-12-14T04:09:03;20.10;;;6.10;;
19434;SDS011;9853;50.848;4.108;2023-12-14T04:11:04;17.17;;;6.20;;
19434;SDS011;9853;50.848;4.108;2023-12-14T04:13:05;16.27;;;5.80;;
19434;SDS011;9853;50.848;4.108;2023-12-14T04:15:06;11.00;;;5.18;;
19434;SDS011;9853;50.848;4.108;2023-12-14T04:17:09;11.93;;;4.75;;
19434;SDS011;9853;50.848;4.108;2023-12-14T04:19:10;11.05;;;5.30;;
19434;SDS011;9853;50.848;4.108;2023-12-14T04:21:11;12.25;;;5.57;;
19434;SDS011;9853;50.848;4.108;2023-12-14T04:23:12;10.00;;;5.47;;
19434;SDS011;9853;50.848;4.108;2023-12-14T04:25:13;15.05;;;6.13;;
19434;SDS011;9853;50.848;4.108;2023-12-14T04:27:14;9.77;;;4.85;;
19434;SDS011;9853;50.848;4.108;2023-12-14T04:29:15;11.60;;;4.82;;
19434;SDS011;9853;50.848;4.108;2023-12-14T04:31:16;8.70;;;4.20;;
19434;SDS011;9853;50.848;4.108;2023-12-14T04:33:17;8.73;;;3.95;;
19434;SDS011;9853;50.848;4.108;2023-12-14T04:35:18;12.40;;;4.88;;
19434;SDS011;9853;50.848;4.108;2023-12-14T04:37:19;10.27;;;4.53;;
19434;SDS011;9853;50.848;4.108;2023-12-14T04:39:20;11.67;;;5.00;;
19434;SDS011;9853;50.848;4.108;2023-12-14T04:41:21;8.83;;;4.40;;
19434;SDS011;9853;50.848;4.108;2023-12-14T04:43:22;13.93;;;5.03;;
19434;SDS011;9853;50.848;4.108;2023-12-14T04:45:23;16.23;;;4.95;;
19434;SDS011;9853;50.848;4.108;2023-12-14T04:47:24;13.55;;;5.63;;
19434;SDS011;9853;50.848;4.108;2023-12-14T04:49:24;13.90;;;4.70;;
19434;SDS011;9853;50.848;4.108;2023-12-14T04:51:25;12.00;;;5.65;;
19434;SDS011;9853;50.848;4.108;2023-12-14T04:53:26;15.90;;;5.07;;
19434;SDS011;9853;50.848;4.108;2023-12-14T04:55:27;11.70;;;4.85;;
19434;SDS011;9853;50.848;4.108;2023-12-14T04:57:28;12.40;;;5.75;;
19434;SDS011;9853;50.848;4.108;2023-12-14T04:59:29;10.88;;;5.40;;
19434;SDS011;9853;50.848;4.108;2023-12-14T05:01:30;15.85;;;5.18;;
19434;SDS011;9853;50.848;4.108;2023-12-14T05:03:31;12.80;;;5.15;;
19434;SDS011;9853;50.848;4.108;2023-12-14T05:05:32;9.80;;;4.80;;
19434;SDS011;9853;50.848;4.108;2023-12-14T05:07:33;10.82;;;4.72;;
19434;SDS011;9853;50.848;4.108;2023-12-14T05:09:33;9.07;;;4.82;;
19434;SDS011;9853;50.848;4.108;2023-12-14T05:11:34;9.20;;;4.15;;
19434;SDS011;9853;50.848;4.108;2023-12-14T05:13:35;8.98;;;4.00;;
19434;SDS011;9853;50.848;4.108;2023-12-14T05:15:36;8.40;;;3.83;;
19434;SDS011;9853;50.848;4.108;2023-12-14T05:17:37;8.20;;;3.88;;
19434;SDS011;9853;50.848;4.108;2023-12-14T05:19:38;6.38;;;3.63;;
19434;SDS011;9853;50.848;4.108;2023-12-14T05:21:39;8.75;;;3.55;;
19434;SDS011;9853;50.848;4.108;2023-12-14T05:23:39;4.35;;;2.85;;
19434;SDS011;9853;50.848;4.108;2023-12-14T05:25:40;8.93;;;3.75;;
19434;SDS011;9853;50.848;4.108;2023-12-14T05:27:41;8.48;;;4.13;;
19434;SDS011;9853;50.848;4.108;2023-12-14T05:29:42;7.05;;;3.25;;
19434;SDS011;9853;50.848;4.108;2023-12-14T05:31:43;6.82;;;3.70;;
19434;SDS011;9853;50.848;4.108;2023-12-14T05:33:44;7.15;;;3.53;;
19434;SDS011;9853;50.848;4.108;2023-12-14T05:35:45;8.10;;;3.70;;
19434;SDS011;9853;50.848;4.108;2023-12-14T05:37:46;7.90;;;3.90;;
19434;SDS011;9853;50.848;4.108;2023-12-14T05:39:47;7.50;;;3.78;;
19434;SDS011;9853;50.848;4.108;2023-12-14T05:41:48;9.05;;;4.55;;
19434;SDS011;9853;50.848;4.108;2023-12-14T05:43:48;11.80;;;4.43;;
19434;SDS011;9853;50.848;4.108;2023-12-14T05:45:49;10.43;;;4.15;;
19434;SDS011;9853;50.848;4.108;2023-12-14T05:47:50;8.07;;;3.58;;
19434;SDS011;9853;50.848;4.108;2023-12-14T05:49:51;11.27;;;3.63;;
19434;SDS011;9853;50.848;4.108;2023-12-14T05:51:52;9.80;;;4.32;;
19434;SDS011;9853;50.848;4.108;2023-12-14T05:53:53;7.90;;;3.65;;
19434;SDS011;9853;50.848;4.108;2023-12-14T05:55:54;9.85;;;4.32;;
19434;SDS011;9853;50.848;4.108;2023-12-14T05:57:55;10.75;;;4.25;;
19434;SDS011;9853;50.848;4.108;2023-12-14T05:59:56;7.70;;;3.65;;
19434;SDS011;9853;50.848;4.108;2023-12-14T06:02:00;9.93;;;4.07;;
19434;SDS011;9853;50.848;4.108;2023-12-14T06:04:01;8.93;;;3.80;;
19434;SDS011;9853;50.848;4.108;2023-12-14T06:06:02;7.20;;;3.40;;
19434;SDS011;9853;50.848;4.108;2023-12-14T06:08:03;8.02;;;3.17;;
19434;SDS011;9853;50.848;4.108;2023-12-14T06:10:05;6.40;;;3.08;;
19434;SDS011;9853;50.848;4.108;2023-12-14T06:12:06;11.23;;;4.47;;
19434;SDS011;9853;50.848;4.108;2023-12-14T06:14:07;5.72;;;2.97;;
19434;SDS011;9853;50.848;4.108;2023-12-14T06:16:08;7.25;;;2.83;;
19434;SDS011;9853;50.848;4.108;2023-12-14T06:18:12;7.10;;;2.97;;
19434;SDS011;9853;50.848;4.108;2023-12-14T06:20:13;8.13;;;3.60;;
19434;SDS011;9853;50.848;4.108;2023-12-14T06:22:14;5.65;;;3.20;;
19434;SDS011;9853;50.848;4.108;2023-12-14T06:24:15;5.93;;;3.00;;
19434;SDS011;9853;50.848;4.108;2023-12-14T06:26:16;4.97;;;2.47;;
19434;SDS011;9853;50.848;4.108;2023-12-14T06:28:16;7.65;;;3.28;;
19434;SDS011;9853;50.848;4.108;2023-12-14T06:30:17;4.15;;;2.38;;
19434;SDS011;9853;50.848;4.108;2023-12-14T06:32:18;6.13;;;2.88;;
19434;SDS011;9853;50.848;4.108;2023-12-14T06:34:20;11.27;;;3.08;;
19434;SDS011;9853;50.848;4.108;2023-12-14T06:36:20;9.18;;;2.38;;
19434;SDS011;9853;50.848;4.108;2023-12-14T06:38:21;4.85;;;2.65;;
19434;SDS011;9853;50.848;4.108;2023-12-14T06:40:22;5.45;;;2.85;;
19434;SDS011;9853;50.848;4.108;2023-12-14T06:42:23;7.85;;;2.35;;
19434;SDS011;9853;50.848;4.108;2023-12-14T06:44:27;4.15;;;2.28;;
19434;SDS011;9853;50.848;4.108;2023-12-14T06:46:30;6.60;;;2.58;;
19434;SDS011;9853;50.848;4.108;2023-12-14T06:48:31;7.68;;;2.63;;
19434;SDS011;9853;50.848;4.108;2023-12-14T06:50:32;5.50;;;2.30;;
19434;SDS011;9853;50.848;4.108;2023-12-14T06:52:33;5.80;;;2.13;;
19434;SDS011;9853;50.848;4.108;2023-12-14T06:54:34;5.35;;;2.17;;
19434;SDS011;9853;50.848;4.108;2023-12-14T06:56:36;5.10;;;2.25;;
19434;SDS011;9853;50.848;4.108;2023-12-14T06:58:41;6.72;;;2.53;;
19434;SDS011;9853;50.848;4.108;2023-12-14T07:00:43;5.63;;;2.15;;
19434;SDS011;9853;50.848;4.108;2023-12-14T07:02:44;5.22;;;2.25;;
19434;SDS011;9853;50.848;4.108;2023-12-14T07:04:45;8.15;;;2.47;;
19434;SDS011;9853;50.848;4.108;2023-12-14T07:06:52;3.97;;;2.00;;
19434;SDS011;9853;50.848;4.108;2023-12-14T07:08:53;3.55;;;1.75;;
19434;SDS011;9853;50.848;4.108;2023-12-14T07:10:54;5.43;;;1.50;;
19434;SDS011;9853;50.848;4.108;2023-12-14T07:12:55;3.63;;;2.03;;
19434;SDS011;9853;50.848;4.108;2023-12-14T07:14:56;3.28;;;1.75;;
19434;SDS011;9853;50.848;4.108;2023-12-14T07:16:57;5.03;;;1.83;;
19434;SDS011;9853;50.848;4.108;2023-12-14T07:18:57;4.10;;;2.28;;
19434;SDS011;9853;50.848;4.108;2023-12-14T07:20:58;3.05;;;1.80;;
19434;SDS011;9853;50.848;4.108;2023-12-14T07:22:59;2.72;;;1.65;;
19434;SDS011;9853;50.848;4.108;2023-12-14T07:25:00;3.90;;;1.90;;
19434;SDS011;9853;50.848;4.108;2023-12-14T07:27:01;10.05;;;1.98;;
19434;SDS011;9853;50.848;4.108;2023-12-14T07:29:02;3.42;;;1.75;;
19434;SDS011;9853;50.848;4.108;2023-12-14T07:31:02;4.47;;;1.58;;
19434;SDS011;9853;50.848;4.108;2023-12-14T07:33:03;4.15;;;1.75;;
19434;SDS011;9853;50.848;4.108;2023-12-14T07:35:05;2.45;;;1.52;;
19434;SDS011;9853;50.848;4.108;2023-12-14T07:37:06;3.92;;;1.80;;
19434;SDS011;9853;50.848;4.108;2023-12-14T07:39:07;5.80;;;1.70;;
19434;SDS011;9853;50.848;4.108;2023-12-14T07:41:09;5.72;;;2.35;;
19434;SDS011;9853;50.848;4.108;2023-12-14T07:43:10;3.05;;;2.10;;
19434;SDS011;9853;50.848;4.108;2023-12-14T07:45:15;3.35;;;1.90;;
19434;SDS011;9853;50.848;4.108;2023-12-14T07:47:16;5.53;;;1.55;;
19434;SDS011;9853;50.848;4.108;2023-12-14T07:49:17;2.70;;;1.40;;
19434;SDS011;9853;50.848;4.108;2023-12-14T07:51:22;2.88;;;1.45;;
19434;SDS011;9853;50.848;4.108;2023-12-14T07:53:22;2.90;;;1.80;;
19434;SDS011;9853;50.848;4.108;2023-12-14T07:55:24;7.57;;;1.65;;
19434;SDS011;9853;50.848;4.108;2023-12-14T07:57:25;4.78;;;1.85;;
19434;SDS011;9853;50.848;4.108;2023-12-14T07:59:26;4.65;;;1.90;;
19434;SDS011;9853;50.848;4.108;2023-12-14T08:01:30;2.60;;;1.55;;
19434;SDS011;9853;50.848;4.108;2023-12-14T08:03:30;2.63;;;1.40;;
19434;SDS011;9853;50.848;4.108;2023-12-14T08:05:31;3.30;;;1.55;;
19434;SDS011;9853;50.848;4.108;2023-12-14T08:07:32;4.03;;;1.90;;
19434;SDS011;9853;50.848;4.108;2023-12-14T08:09:33;1.83;;;1.23;;
19434;SDS011;9853;50.848;4.108;2023-12-14T08:11:34;2.22;;;1.35;;
19434;SDS011;9853;50.848;4.108;2023-12-14T08:13:35;3.47;;;1.73;;
19434;SDS011;9853;50.848;4.108;2023-12-14T08:15:36;4.93;;;2.10;;
19434;SDS011;9853;50.848;4.108;2023-12-14T08:17:37;4.40;;;1.88;;
19434;SDS011;9853;50.848;4.108;2023-12-14T08:19:37;8.23;;;1.67;;
19434;SDS011;9853;50.848;4.108;2023-12-14T08:21:38;2.40;;;1.38;;
19434;SDS011;9853;50.848;4.108;2023-12-14T08:23:39;5.97;;;2.63;;
19434;SDS011;9853;50.848;4.108;2023-12-14T08:25:40;8.82;;;2.08;;
19434;SDS011;9853;50.848;4.108;2023-12-14T08:27:41;3.10;;;1.50;;
19434;SDS011;9853;50.848;4.108;2023-12-14T08:29:44;14.35;;;2.70;;
19434;SDS011;9853;50.848;4.108;2023-12-14T08:31:46;4.00;;;2.15;;
19434;SDS011;9853;50.848;4.108;2023-12-14T08:33:46;3.80;;;2.13;;
19434;SDS011;9853;50.848;4.108;2023-12-14T08:35:47;7.57;;;1.92;;
19434;SDS011;9853;50.848;4.108;2023-12-14T08:37:49;3.95;;;1.90;;
19434;SDS011;9853;50.848;4.108;2023-12-14T08:39:49;7.05;;;2.45;;
19434;SDS011;9853;50.848;4.108;2023-12-14T08:41:50;4.63;;;2.22;;
19434;SDS011;9853;50.848;4.108;2023-12-14T08:43:51;7.05;;;2.15;;
19434;SDS011;9853;50.848;4.108;2023-12-14T08:45:52;3.30;;;1.90;;
19434;SDS011;9853;50.848;4.108;2023-12-14T08:47:53;4.05;;;2.28;;
19434;SDS011;9853;50.848;4.108;2023-12-14T08:49:54;4.88;;;1.92;;
19434;SDS011;9853;50.848;4.108;2023-12-14T08:51:54;8.40;;;2.38;;
19434;SDS011;9853;50.848;4.108;2023-12-14T08:53:55;4.35;;;2.15;;
19434;SDS011;9853;50.848;4.108;2023-12-14T08:55:56;3.45;;;1.75;;
19434;SDS011;9853;50.848;4.108;2023-12-14T08:57:57;4.10;;;1.50;;
19434;SDS011;9853;50.848;4.108;2023-12-14T08:59:58;3.35;;;1.65;;
19434;SDS011;9853;50.848;4.108;2023-12-14T09:01:59;9.48;;;2.88;;
19434;SDS011;9853;50.848;4.108;2023-12-14T09:04:00;4.80;;;1.45;;
19434;SDS011;9853;50.848;4.108;2023-12-14T09:06:01;4.43;;;1.30;;
19434;SDS011;9853;50.848;4.108;2023-12-14T09:08:05;3.90;;;1.50;;
19434;SDS011;9853;50.848;4.108;2023-12-14T09:10:06;3.97;;;1.83;;
19434;SDS011;9853;50.848;4.108;2023-12-14T09:12:07;6.72;;;2.05;;
19434;SDS011;9853;50.848;4.108;2023-12-14T09:14:08;1.95;;;1.30;;
19434;SDS011;9853;50.848;4.108;2023-12-14T09:16:09;6.20;;;2.33;;
19434;SDS011;9853;50.848;4.108;2023-12-14T09:18:10;1.92;;;1.10;;
19434;SDS011;9853;50.848;4.108;2023-12-14T09:20:11;4.95;;;1.50;;
19434;SDS011;9853;50.848;4.108;2023-12-14T09:22:12;5.38;;;1.85;;
19434;SDS011;9853;50.848;4.108;2023-12-14T09:24:13;4.15;;;1.45;;
19434;SDS011;9853;50.848;4.108;2023-12-14T09:26:14;4.20;;;1.23;;
19434;SDS011;9853;50.848;4.108;2023-12-14T09:28:15;2.85;;;1.48;;
19434;SDS011;9853;50.848;4.108;2023-12-14T09:30:16;2.33;;;1.27;;
19434;SDS011;9853;50.848;4.108;2023-12-14T09:32:17;4.85;;;1.55;;
19434;SDS011;9853;50.848;4.108;2023-12-14T09:34:18;6.13;;;2.33;;
19434;SDS011;9853;50.848;4.108;2023-12-14T09:36:19;6.03;;;1.73;;
19434;SDS011;9853;50.848;4.108;2023-12-14T09:38:20;5.32;;;1.60;;
19434;SDS011;9853;50.848;4.108;2023-12-14T09:40:21;4.00;;;1.70;;
19434;SDS011;9853;50.848;4.108;2023-12-14T09:42:22;2.58;;;1.48;;
19434;SDS011;9853;50.848;4.108;2023-12-14T09:44:23;6.72;;;1.70;;
19434;SDS011;9853;50.848;4.108;2023-12-14T09:46:24;6.43;;;1.52;;
19434;SDS011;9853;50.848;4.108;2023-12-14T09:48:27;7.90;;;1.90;;
19434;SDS011;9853;50.848;4.108;2023-12-14T09:50:30;6.82;;;2.15;;
19434;SDS011;9853;50.848;4.108;2023-12-14T09:52:31;5.57;;;1.77;;
19434;SDS011;9853;50.848;4.108;2023-12-14T09:54:33;7.95;;;1.95;;
19434;SDS011;9853;50.848;4.108;2023-12-14T09:56:34;7.88;;;2.08;;
19434;SDS011;9853;50.848;4.108;2023-12-14T09:58:35;4.78;;;2.22;;
19434;SDS011;9853;50.848;4.108;2023-12-14T10:00:37;3.88;;;1.85;;
19434;SDS011;9853;50.848;4.108;2023-12-14T10:02:41;3.15;;;1.67;;
19434;SDS011;9853;50.848;4.108;2023-12-14T10:04:43;9.20;;;1.90;;
19434;SDS011;9853;50.848;4.108;2023-12-14T10:06:45;3.65;;;2.00;;
19434;SDS011;9853;50.848;4.108;2023-12-14T10:08:56;10.18;;;1.90;;
19434;SDS011;9853;50.848;4.108;2023-12-14T10:10:57;5.25;;;2.42;;
19434;SDS011;9853;50.848;4.108;2023-12-14T10:12:58;3.60;;;1.50;;
19434;SDS011;9853;50.848;4.108;2023-12-14T10:15:02;5.07;;;2.35;;
19434;SDS011;9853;50.848;4.108;2023-12-14T10:19:24;4.63;;;2.33;;
19434;SDS011;9853;50.848;4.108;2023-12-14T10:21:28;7.20;;;2.47;;
19434;SDS011;9853;50.848;4.108;2023-12-14T10:23:29;3.97;;;1.83;;
19434;SDS011;9853;50.848;4.108;2023-12-14T10:25:30;5.85;;;3.83;;
19434;SDS011;9853;50.848;4.108;2023-12-14T10:27:31;4.13;;;1.50;;
19434;SDS011;9853;50.848;4.108;2023-12-14T10:29:36;5.68;;;2.33;;
19434;SDS011;9853;50.848;4.108;2023-12-14T10:31:39;3.55;;;1.58;;
19434;SDS011;9853;50.848;4.108;2023-12-14T10:33:40;5.82;;;1.85;;
19434;SDS011;9853;50.848;4.108;2023-12-14T10:35:41;4.43;;;1.80;;
19434;SDS011;9853;50.848;4.108;2023-12-14T10:37:43;2.55;;;1.35;;
19434;SDS011;9853;50.848;4.108;2023-12-14T10:39:45;7.25;;;1.83;;
19434;SDS011;9853;50.848;4.108;2023-12-14T10:41:48;5.65;;;1.30;;
19434;SDS011;9853;50.848;4.108;2023-12-14T10:43:55;4.68;;;2.15;;
19434;SDS011;9853;50.848;4.108;2023-12-14T10:45:57;4.40;;;1.88;;
19434;SDS011;9853;50.848;4.108;2023-12-14T10:47:59;4.53;;;1.77;;
19434;SDS011;9853;50.848;4.108;2023-12-14T10:50:01;2.75;;;1.60;;
19434;SDS011;9853;50.848;4.108;2023-12-14T10:52:03;3.05;;;1.55;;
19434;SDS011;9853;50.848;4.108;2023-12-14T10:54:05;4.45;;;2.63;;
19434;SDS011;9853;50.848;4.108;2023-12-14T10:56:06;6.70;;;1.95;;
19434;SDS011;9853;50.848;4.108;2023-12-14T10:58:11;3.35;;;1.52;;
19434;SDS011;9853;50.848;4.108;2023-12-14T11:00:13;7.32;;;3.90;;
19434;SDS011;9853;50.848;4.108;2023-12-14T11:02:17;6.50;;;2.28;;
19434;SDS011;9853;50.848;4.108;2023-12-14T11:04:18;8.07;;;2.17;;
19434;SDS011;9853;50.848;4.108;2023-12-14T11:08:24;6.47;;;2.45;;
19434;SDS011;9853;50.848;4.108;2023-12-14T11:10:39;4.07;;;1.75;;
19434;SDS011;9853;50.848;4.108;2023-12-14T11:12:51;6.35;;;2.15;;
19434;SDS011;9853;50.848;4.108;2023-12-14T11:14:55;6.32;;;1.95;;
19434;SDS011;9853;50.848;4.108;2023-12-14T11:16:56;5.65;;;1.98;;
19434;SDS011;9853;50.848;4.108;2023-12-14T11:21:21;4.35;;;2.10;;
19434;SDS011;9853;50.848;4.108;2023-12-14T11:25:25;3.80;;;1.92;;
19434;SDS011;9853;50.848;4.108;2023-12-14T11:27:28;7.45;;;2.53;;
19434;SDS011;9853;50.848;4.108;2023-12-14T11:29:29;13.57;;;7.28;;
19434;SDS011;9853;50.848;4.108;2023-12-14T11:31:30;4.35;;;2.15;;
19434;SDS011;9853;50.848;4.108;2023-12-14T11:33:32;4.97;;;2.40;;
19434;SDS011;9853;50.848;4.108;2023-12-14T11:35:34;10.90;;;5.00;;
19434;SDS011;9853;50.848;4.108;2023-12-14T11:37:35;3.30;;;1.63;;
19434;SDS011;9853;50.848;4.108;2023-12-14T11:39:36;3.55;;;2.00;;
19434;SDS011;9853;50.848;4.108;2023-12-14T11:41:38;4.18;;;2.30;;
19434;SDS011;9853;50.848;4.108;2023-12-14T11:43:39;6.80;;;2.13;;
19434;SDS011;9853;50.848;4.108;2023-12-14T11:45:41;6.65;;;2.85;;
19434;SDS011;9853;50.848;4.108;2023-12-14T11:47:43;4.63;;;2.13;;
19434;SDS011;9853;50.848;4.108;2023-12-14T11:49:44;6.75;;;1.90;;
19434;SDS011;9853;50.848;4.108;2023-12-14T11:51:46;4.75;;;2.15;;
19434;SDS011;9853;50.848;4.108;2023-12-14T11:53:47;6.25;;;2.03;;
19434;SDS011;9853;50.848;4.108;2023-12-14T11:55:48;3.97;;;2.60;;
19434;SDS011;9853;50.848;4.108;2023-12-14T11:57:49;4.75;;;1.48;;
19434;SDS011;9853;50.848;4.108;2023-12-14T11:59:51;7.82;;;2.10;;
19434;SDS011;9853;50.848;4.108;2023-12-14T12:01:58;13.77;;;2.58;;
19434;SDS011;9853;50.848;4.108;2023-12-14T12:04:07;6.80;;;3.25;;
19434;SDS011;9853;50.848;4.108;2023-12-14T12:06:20;5.43;;;1.98;;
19434;SDS011;9853;50.848;4.108;2023-12-14T12:08:21;10.57;;;3.10;;
19434;SDS011;9853;50.848;4.108;2023-12-14T12:10:23;10.00;;;3.13;;
19434;SDS011;9853;50.848;4.108;2023-12-14T12:12:24;6.15;;;2.60;;
19434;SDS011;9853;50.848;4.108;2023-12-14T12:14:25;5.25;;;2.85;;
19434;SDS011;9853;50.848;4.108;2023-12-14T12:16:26;7.75;;;3.97;;
19434;SDS011;9853;50.848;4.108;2023-12-14T12:18:27;7.07;;;2.42;;
19434;SDS011;9853;50.848;4.108;2023-12-14T12:20:28;4.60;;;2.22;;
19434;SDS011;9853;50.848;4.108;2023-12-14T12:22:28;6.10;;;2.70;;
19434;SDS011;9853;50.848;4.108;2023-12-14T12:24:29;6.38;;;2.42;;
19434;SDS011;9853;50.848;4.108;2023-12-14T12:26:30;4.10;;;2.13;;
19434;SDS011;9853;50.848;4.108;2023-12-14T12:28:31;6.22;;;2.53;;